Ana Sayfa
METAR-TAF:

METAR-TAF

Havaalanları :

Shenandoah Valley Regional Airport

Staunton / Waynesboro / Harrisonburg, Virginia, Amerika Birleşik Devletleri

Enlem: 38-16N, Boylam: 078-54W, yükseklik: 366 m

Güncel hava durumu gözlemi

Rapor saat 16:10 UTC de 28 dakika önce yapıldı.
Rüzgar güney/güneydoğudan 5 kt
Sıcaklık 29°C
Nem 62%
Basınç 1017 hPa
Görüş mesafesi: 16.1 km
Açık gökyüzü

METAR: KSHD 211610Z AUTO 15005KT 10SM CLR 29/21 A3002 RMK AO2 T02910208

Saat: 12:38 (16:38 UTC)


TAF: eksik

4.000'den fazla havaalanı için hava durumu gözlemleri ve tahminleri (METAR ve TAF raporları).

Kullanılabilir istasyonlar harita üzerinde sarı ve kırmızı noktalarla gösterilir.

İstasyonun adını görmek için fareyi noktanın üzerinde gezdirin.

Sonrasında hava gözlem ve tahminlerini görmek için tıklayın.

Haritayı değiştirmek için: yaklaştırmak için siyah artı işaretli yeşil düğmeye ve uzaklaştırmak için de eksi işaretli düğmeye hızla tıklayın; bitişik haritalar için yeşil okları kullanın.


METAR-TAF: